Time;durP1;ratioP1;P1;durP2;ratioP2;P2;SDS_P1;SDS_P2;PMS_P1;PMS_P2;Temp;Humidity;BMP_temperature;BMP_pressure;BME280_temperature;BME280_humidity;BME280_pressure;Samples;Min_cycle;Max_cycle;Signal;HPM_P1;HPM_P2
2021/03/22 00:02:23;;;;;;;1999.90;999.90;;;5.50;99.90;;;;;;4925292;29;20227;-88
2021/03/22 00:04:52;;;;;;;1999.90;999.90;;;5.50;99.90;;;;;;4939101;28;20623;-87
2021/03/22 00:07:18;;;;;;;1999.90;999.90;;;5.50;99.90;;;;;;4939807;29;20172;-87
2021/03/22 00:09:44;;;;;;;1999.90;999.90;;;5.50;99.90;;;;;;4940231;29;20198;-87
2021/03/22 00:12:10;;;;;;;1999.90;999.90;;;5.50;99.90;;;;;;4938916;29;20176;-87
2021/03/22 00:14:36;;;;;;;1999.90;999.90;;;5.50;99.90;;;;;;4939787;29;20664;-87
2021/03/22 00:17:08;;;;;;;1999.90;999.90;;;5.50;99.90;;;;;;4939321;29;20207;-87
2021/03/22 00:19:34;;;;;;;1999.90;999.90;;;5.50;99.90;;;;;;4939408;29;20200;-87
2021/03/22 00:22:10;;;;;;;1999.90;999.90;;;5.50;99.90;;;;;;4940136;29;20182;-87
2021/03/22 00:24:36;;;;;;;1999.90;999.90;;;5.40;99.90;;;;;;4940034;29;20435;-87
2021/03/22 00:27:05;;;;;;;1999.90;999.90;;;5.30;99.90;;;;;;4940160;29;20561;-87
2021/03/22 00:29:31;;;;;;;1999.90;999.90;;;5.30;99.90;;;;;;4939373;29;20415;-87
2021/03/22 00:31:59;;;;;;;1999.90;999.90;;;5.30;99.90;;;;;;4939304;29;20227;-87
2021/03/22 00:34:25;;;;;;;1999.90;999.90;;;5.40;99.90;;;;;;4939612;29;20172;-87
2021/03/22 00:36:53;;;;;;;1999.90;999.90;;;5.30;99.90;;;;;;4940217;29;20179;-87
2021/03/22 00:39:18;;;;;;;1999.90;999.90;;;5.20;99.90;;;;;;4940391;29;20196;-87
2021/03/22 00:41:44;;;;;;;1999.90;999.90;;;5.30;99.90;;;;;;4942519;29;20683;-87
2021/03/22 00:44:19;;;;;;;1999.90;999.90;;;5.30;99.90;;;;;;4962197;29;20517;-88
2021/03/22 00:46:45;;;;;;;1999.90;999.90;;;5.30;99.90;;;;;;4944767;29;20174;-87
2021/03/22 00:49:11;;;;;;;1999.90;999.90;;;5.20;99.90;;;;;;4965535;29;20199;-87
2021/03/22 00:51:36;;;;;;;1999.90;999.90;;;5.20;99.90;;;;;;4956460;29;20202;-87
2021/03/22 00:54:02;;;;;;;1999.90;999.90;;;5.20;99.90;;;;;;4939189;29;20195;-87
2021/03/22 00:56:31;;;;;;;1999.90;999.90;;;5.10;99.90;;;;;;4955955;29;20262;-87
2021/03/22 00:59:02;;;;;;;1999.90;999.90;;;5.20;99.90;;;;;;4939274;29;20470;-87
2021/03/22 01:01:40;;;;;;;1999.90;999.90;;;5.20;99.90;;;;;;4939356;29;20228;-87
2021/03/22 01:04:06;;;;;;;1999.90;999.90;;;5.20;99.90;;;;;;4939438;29;20180;-87
2021/03/22 01:06:34;;;;;;;1999.90;999.90;;;5.30;99.90;;;;;;4938644;29;20198;-87
2021/03/22 01:09:14;;;;;;;1999.90;999.90;;;5.20;99.90;;;;;;4939028;29;20199;-87
2021/03/22 01:11:47;;;;;;;1999.90;999.90;;;5.10;99.90;;;;;;4939208;29;20651;-87
2021/03/22 01:14:13;;;;;;;1999.90;999.90;;;5.10;99.90;;;;;;4938735;29;20182;-86
2021/03/22 01:16:41;;;;;;;1999.90;999.90;;;5.10;99.90;;;;;;4938948;29;20708;-87
2021/03/22 01:19:16;;;;;;;1999.90;999.90;;;5.10;99.90;;;;;;4961452;29;20199;-87
2021/03/22 01:21:53;;;;;;;1999.90;999.90;;;5.20;99.90;;;;;;4945455;29;20167;-88
2021/03/22 01:24:23;;;;;;;1999.90;999.90;;;5.20;99.90;;;;;;4945305;29;20187;-88
2021/03/22 01:26:58;;;;;;;1999.90;999.90;;;5.10;99.90;;;;;;4945568;29;20172;-87
2021/03/22 01:29:30;;;;;;;1999.90;999.90;;;5.10;99.90;;;;;;4946182;29;20516;-88
2021/03/22 01:31:59;;;;;;;1999.90;999.90;;;5.20;99.90;;;;;;4945819;29;20203;-87
2021/03/22 01:34:30;;;;;;;1999.90;999.90;;;5.10;99.90;;;;;;4945444;29;20182;-88
2021/03/22 01:36:57;;;;;;;1999.90;999.90;;;5.20;99.90;;;;;;4962974;29;20179;-87
2021/03/22 01:39:28;;;;;;;1999.90;999.90;;;5.20;99.90;;;;;;4945699;29;20675;-87
2021/03/22 01:42:16;;;;;;;1999.90;999.90;;;5.20;99.90;;;;;;4945968;29;20213;-89
2021/03/22 01:44:46;;;;;;;1999.90;999.90;;;5.20;99.90;;;;;;4944828;29;20184;-87
2021/03/22 01:47:19;;;;;;;1999.90;999.90;;;5.20;99.90;;;;;;4945306;29;20520;-87
2021/03/22 01:49:53;;;;;;;1999.90;999.90;;;5.30;99.90;;;;;;4944311;29;20207;-87
2021/03/22 01:52:24;;;;;;;1999.90;999.90;;;5.30;99.90;;;;;;4945632;29;20160;-88
2021/03/22 01:54:53;;;;;;;1999.90;999.90;;;5.20;99.90;;;;;;4944856;29;20187;-89
2021/03/22 01:57:32;;;;;;;1999.90;999.90;;;5.20;99.90;;;;;;4962114;29;20196;-88
2021/03/22 02:00:10;;;;;;;1999.90;999.90;;;5.30;99.90;;;;;;4944402;29;20199;-87
2021/03/22 02:02:41;;;;;;;1999.90;999.90;;;5.30;99.90;;;;;;4945046;29;20502;-88
2021/03/22 02:05:12;;;;;;;1999.90;999.90;;;5.40;99.90;;;;;;4945554;29;20274;-88
2021/03/22 02:07:41;;;;;;;1999.90;999.90;;;5.30;99.90;;;;;;4945657;29;20243;-87
2021/03/22 02:10:08;;;;;;;1999.90;999.90;;;5.30;99.90;;;;;;4945578;29;20182;-88
2021/03/22 02:12:37;;;;;;;1999.90;999.90;;;5.30;99.90;;;;;;4961947;29;20168;-87
2021/03/22 02:15:05;;;;;;;1999.90;999.90;;;5.30;99.90;;;;;;4944683;29;20246;-88
2021/03/22 02:17:39;;;;;;;1999.90;999.90;;;5.30;99.90;;;;;;4944424;29;20172;-89
2021/03/22 02:20:18;;;;;;;1999.90;999.90;;;5.30;99.90;;;;;;4944554;29;20282;-87
2021/03/22 02:23:02;;;;;;;1999.90;999.90;;;5.30;99.90;;;;;;4944112;29;20301;-88
2021/03/22 02:25:37;;;;;;;1999.90;999.90;;;5.30;99.90;;;;;;4943228;29;20188;-89
2021/03/22 02:28:26;;;;;;;1999.90;999.90;;;5.30;99.90;;;;;;4943184;28;20226;-88
2021/03/22 02:31:32;;;;;;;1999.90;999.90;;;5.20;99.90;;;;;;4943972;29;20171;-88
2021/03/22 02:34:19;;;;;;;1999.90;999.90;;;5.20;99.90;;;;;;4943620;29;20179;-88
2021/03/22 02:37:06;;;;;;;1999.90;999.90;;;5.10;99.90;;;;;;4943477;29;20179;-89
2021/03/22 02:39:42;;;;;;;1999.90;999.90;;;5.10;99.90;;;;;;4944439;29;20215;-88
2021/03/22 02:42:10;;;;;;;1999.90;999.90;;;5.10;99.90;;;;;;4951085;29;20164;-87
2021/03/22 02:44:38;;;;;;;1999.90;999.90;;;5.10;99.90;;;;;;4941266;29;20187;-87
2021/03/22 02:47:37;;;;;;;1999.90;999.90;;;5.10;99.90;;;;;;4941403;29;20171;-87
2021/03/22 02:50:16;;;;;;;1999.90;999.90;;;5.10;99.90;;;;;;4936404;29;20190;-87
2021/03/22 02:53:16;;;;;;;1999.90;999.90;;;5.20;99.90;;;;;;4939496;29;20176;-87
2021/03/22 02:56:05;;;;;;;1999.90;999.90;;;5.20;99.90;;;;;;5001019;23;20700;-79
2021/03/22 02:58:38;;;;;;;1999.90;999.90;;;5.30;99.90;;;;;;4922975;29;20190;-80
2021/03/22 03:01:17;;;;;;;1999.90;999.90;;;5.20;99.90;;;;;;4923337;29;20741;-80
2021/03/22 03:03:45;;;;;;;1999.90;999.90;;;5.20;99.90;;;;;;4922537;29;20225;-80
2021/03/22 03:06:11;;;;;;;1999.90;999.90;;;5.30;99.90;;;;;;4923224;29;20260;-80
2021/03/22 03:08:40;;;;;;;1999.90;999.90;;;5.20;99.90;;;;;;4922800;29;20221;-80
2021/03/22 03:11:07;;;;;;;1999.90;999.90;;;5.20;99.90;;;;;;4922481;29;20213;-79
2021/03/22 03:13:33;;;;;;;1999.90;999.90;;;5.20;99.90;;;;;;4922432;29;20677;-79
2021/03/22 03:15:59;;;;;;;1999.90;999.90;;;5.30;99.90;;;;;;4923164;29;20208;-80
2021/03/22 03:18:25;;;;;;;1999.90;999.90;;;5.30;99.90;;;;;;4922104;29;20625;-80
2021/03/22 03:20:51;;;;;;;1999.90;999.90;;;5.30;99.90;;;;;;4922853;29;20578;-80
2021/03/22 03:23:18;;;;;;;1999.90;999.90;;;5.20;99.90;;;;;;4921212;29;20193;-80
2021/03/22 03:25:44;;;;;;;1999.90;999.90;;;5.20;99.90;;;;;;4922311;29;20165;-79
2021/03/22 03:28:11;;;;;;;1999.90;999.90;;;5.20;99.90;;;;;;4922251;29;20591;-80
2021/03/22 03:30:38;;;;;;;1999.90;999.90;;;5.30;99.90;;;;;;4922608;29;20181;-80
2021/03/22 03:33:07;;;;;;;1999.90;999.90;;;5.20;99.90;;;;;;4922411;29;20217;-79
2021/03/22 03:35:35;;;;;;;1999.90;999.90;;;5.20;99.90;;;;;;4920936;29;20173;-80
2021/03/22 03:38:05;;;;;;;1999.90;999.90;;;5.20;99.90;;;;;;4922075;29;20177;-79
2021/03/22 03:40:35;;;;;;;1999.90;999.90;;;5.20;99.90;;;;;;4922250;29;20573;-80
2021/03/22 03:43:01;;;;;;;1999.90;999.90;;;5.20;99.90;;;;;;4922678;29;20165;-80
2021/03/22 03:45:32;;;;;;;1999.90;999.90;;;5.20;99.90;;;;;;4922476;29;20165;-80
2021/03/22 03:47:57;;;;;;;1999.90;999.90;;;5.20;99.90;;;;;;4922553;29;20170;-80
2021/03/22 03:50:29;;;;;;;1999.90;999.90;;;5.10;99.90;;;;;;4922152;29;20272;-80
2021/03/22 03:52:56;;;;;;;1999.90;999.90;;;5.10;99.90;;;;;;4921719;29;20214;-80
2021/03/22 03:55:24;;;;;;;1999.90;999.90;;;5.10;99.90;;;;;;4922055;29;20185;-79
2021/03/22 03:57:51;;;;;;;1999.90;999.90;;;5.20;99.90;;;;;;4921960;29;20586;-79
2021/03/22 04:00:42;;;;;;;1999.90;999.90;;;5.20;99.90;;;;;;4922431;29;20655;-80
2021/03/22 04:03:27;;;;;;;1999.90;999.90;;;5.20;99.90;;;;;;4921460;29;20293;-80
2021/03/22 04:05:56;;;;;;;1999.90;999.90;;;5.10;99.90;;;;;;4922406;29;20185;-80
2021/03/22 04:08:22;;;;;;;1999.90;999.90;;;5.10;99.90;;;;;;4921769;29;20161;-80
2021/03/22 04:10:50;;;;;;;1999.90;999.90;;;5.10;99.90;;;;;;4921558;29;20165;-80
2021/03/22 04:13:17;;;;;;;1999.90;999.90;;;5.00;99.90;;;;;;4921628;29;20265;-80
2021/03/22 04:15:42;;;;;;;1999.90;999.90;;;5.00;99.90;;;;;;4922194;29;20179;-80
2021/03/22 04:18:08;;;;;;;1999.90;999.90;;;5.00;99.90;;;;;;4921961;29;20173;-80
2021/03/22 04:20:34;;;;;;;1999.90;999.90;;;5.00;99.90;;;;;;4920691;29;20224;-79
2021/03/22 04:23:00;;;;;;;1999.90;999.90;;;5.00;99.90;;;;;;4921310;29;20166;-80
2021/03/22 04:25:25;;;;;;;1999.90;999.90;;;5.00;99.90;;;;;;4919634;29;20830;-80
2021/03/22 04:27:51;;;;;;;1999.90;999.90;;;5.00;99.90;;;;;;4920976;29;20194;-80
2021/03/22 04:30:18;;;;;;;1999.90;999.90;;;5.00;99.90;;;;;;4920632;29;20668;-80
2021/03/22 04:32:43;;;;;;;1999.90;999.90;;;4.90;99.90;;;;;;4921256;29;20413;-80
2021/03/22 04:35:10;;;;;;;1999.90;999.90;;;4.90;99.90;;;;;;4920965;29;20201;-80
2021/03/22 04:37:35;;;;;;;1999.90;999.90;;;4.90;99.90;;;;;;4921072;29;20180;-80
2021/03/22 04:40:01;;;;;;;1999.90;999.90;;;4.90;99.90;;;;;;4920874;29;20201;-80
2021/03/22 04:42:27;;;;;;;1999.90;999.90;;;4.80;99.90;;;;;;4921259;29;20188;-80
2021/03/22 04:44:53;;;;;;;1999.90;999.90;;;4.80;99.90;;;;;;4921131;29;20669;-80
2021/03/22 04:47:19;;;;;;;1999.90;999.90;;;4.80;99.90;;;;;;4920676;29;20177;-80
2021/03/22 04:49:44;;;;;;;1999.90;999.90;;;4.80;99.90;;;;;;4920911;29;20197;-80
2021/03/22 04:52:10;;;;;;;1999.90;999.90;;;4.80;99.90;;;;;;4920148;29;20173;-80
2021/03/22 04:54:35;;;;;;;1999.90;999.90;;;4.80;99.90;;;;;;4920646;29;20188;-79
2021/03/22 04:57:12;;;;;;;1999.90;999.90;;;4.80;99.90;;;;;;4920849;29;20236;-80
2021/03/22 04:59:39;;;;;;;1999.90;999.90;;;4.90;99.90;;;;;;4920874;29;20195;-80
2021/03/22 05:02:05;;;;;;;1999.90;999.90;;;4.90;99.90;;;;;;4920041;29;20169;-80
2021/03/22 05:04:31;;;;;;;1999.90;999.90;;;4.90;99.90;;;;;;4919778;29;20256;-80
2021/03/22 05:06:56;;;;;;;1999.90;999.90;;;4.90;99.90;;;;;;4920531;29;20161;-80
2021/03/22 05:09:22;;;;;;;1999.90;999.90;;;4.90;99.90;;;;;;4920037;29;20178;-80
2021/03/22 05:11:48;;;;;;;1999.90;999.90;;;4.90;99.90;;;;;;4920693;29;20224;-79
2021/03/22 05:14:13;;;;;;;1999.90;999.90;;;4.80;99.90;;;;;;4920206;29;20181;-80
2021/03/22 05:16:39;;;;;;;1999.90;999.90;;;4.80;99.90;;;;;;4919211;29;20585;-79
2021/03/22 05:19:05;;;;;;;1999.90;999.90;;;4.80;99.90;;;;;;4918885;29;20197;-80
2021/03/22 05:21:30;;;;;;;1999.90;999.90;;;4.80;99.90;;;;;;4920470;29;20157;-80
2021/03/22 05:23:56;;;;;;;1999.90;999.90;;;4.70;99.90;;;;;;4920478;29;20260;-80
2021/03/22 05:26:22;;;;;;;1999.90;999.90;;;4.80;99.90;;;;;;4919953;29;20402;-79
2021/03/22 05:28:47;;;;;;;1999.90;999.90;;;4.80;99.90;;;;;;4920487;29;20228;-80
2021/03/22 05:31:13;;;;;;;1999.90;999.90;;;4.80;99.90;;;;;;4920432;29;20173;-80
2021/03/22 05:33:39;;;;;;;1999.90;999.90;;;4.80;99.90;;;;;;4919759;29;20192;-80
2021/03/22 05:36:05;;;;;;;1999.90;999.90;;;4.80;99.90;;;;;;4920357;29;20642;-80
2021/03/22 05:38:31;;;;;;;1999.90;999.90;;;4.90;99.90;;;;;;4920285;29;20204;-80
2021/03/22 05:41:04;;;;;;;1999.90;999.90;;;4.90;99.90;;;;;;4918271;29;20616;-80
2021/03/22 05:43:42;;;;;;;1999.90;999.90;;;4.90;99.90;;;;;;4919598;29;20217;-82
2021/03/22 05:46:53;;;;;;;1999.90;999.90;;;4.90;99.90;;;;;;4919994;29;20646;-79
2021/03/22 05:49:42;;;;;;;1999.90;999.90;;;4.80;99.90;;;;;;4919801;29;20169;-79
2021/03/22 05:52:40;;;;;;;1999.90;999.90;;;4.90;99.90;;;;;;4920382;29;20154;-79
2021/03/22 05:55:42;;;;;;;1999.90;999.90;;;4.90;99.90;;;;;;4919753;29;20209;-78
2021/03/22 05:58:40;;;;;;;1999.90;999.90;;;4.90;99.90;;;;;;4919799;29;20165;-80
2021/03/22 06:01:31;;;;;;;1999.90;999.90;;;4.90;99.90;;;;;;4919618;29;20224;-79
2021/03/22 06:04:19;;;;;;;1999.90;999.90;;;4.90;99.90;;;;;;4919843;29;20243;-79
2021/03/22 06:06:50;;;;;;;1999.90;999.90;;;5.00;99.90;;;;;;4916003;29;20260;-79
2021/03/22 06:09:39;;;;;;;1999.90;999.90;;;5.00;99.90;;;;;;4923728;29;20169;-79
2021/03/22 06:12:08;;;;;;;1999.90;999.90;;;5.00;99.90;;;;;;4923143;29;20161;-80
2021/03/22 06:15:06;;;;;;;1999.90;999.90;;;5.00;99.90;;;;;;4923133;29;20199;-80
2021/03/22 06:17:49;;;;;;;1999.90;999.90;;;5.00;99.90;;;;;;4923542;29;20180;-79
2021/03/22 06:20:25;;;;;;;1999.90;999.90;;;5.10;99.90;;;;;;4923071;29;20204;-79
2021/03/22 06:22:54;;;;;;;1999.90;999.90;;;5.10;99.90;;;;;;4922739;29;20169;-80
2021/03/22 06:25:31;;;;;;;1999.90;999.90;;;5.20;99.90;;;;;;4921962;29;20173;-80
2021/03/22 06:28:15;;;;;;;1999.90;999.90;;;5.20;99.90;;;;;;4922320;29;20172;-80
2021/03/22 06:30:57;;;;;;;1999.90;999.90;;;5.20;99.90;;;;;;4923276;29;20166;-80
2021/03/22 06:33:36;;;;;;;1999.90;999.90;;;5.30;99.90;;;;;;4923583;29;20189;-80
2021/03/22 06:36:03;;;;;;;1999.90;999.90;;;5.30;99.90;;;;;;4922881;29;20173;-79
2021/03/22 06:38:29;;;;;;;1999.90;999.90;;;5.30;99.90;;;;;;4922979;29;20189;-79
2021/03/22 06:40:54;;;;;;;1999.90;999.90;;;5.40;99.90;;;;;;4921523;29;20176;-79
2021/03/22 06:43:23;;;;;;;1999.90;999.90;;;5.40;99.90;;;;;;4923045;29;20205;-79
2021/03/22 06:45:52;;;;;;;1999.90;999.90;;;5.40;99.90;;;;;;4921646;29;20169;-79
2021/03/22 06:48:24;;;;;;;1999.90;999.90;;;5.50;99.90;;;;;;4922033;29;20173;-78
2021/03/22 06:51:15;;;;;;;1999.90;999.90;;;5.50;99.90;;;;;;4920716;29;20184;-79
2021/03/22 06:53:46;;;;;;;1999.90;999.90;;;5.60;99.90;;;;;;4922666;29;20552;-79
2021/03/22 06:56:25;;;;;;;1999.90;999.90;;;5.60;99.90;;;;;;4922170;29;20228;-80
2021/03/22 06:59:12;;;;;;;1999.90;999.90;;;5.70;99.90;;;;;;4921235;29;20575;-79
2021/03/22 07:01:39;;;;;;;1999.90;999.90;;;5.70;99.90;;;;;;4922542;29;20158;-80
2021/03/22 07:04:20;;;;;;;1999.90;999.90;;;5.60;99.90;;;;;;4922461;29;20249;-79
2021/03/22 07:07:16;;;;;;;1999.90;999.90;;;5.60;99.90;;;;;;4921554;29;20150;-80
2021/03/22 07:09:46;;;;;;;1999.90;999.90;;;5.60;99.90;;;;;;4936727;29;20157;-80
2021/03/22 07:12:25;;;;;;;1999.90;999.90;;;5.50;99.90;;;;;;4923004;29;20349;-80
2021/03/22 07:14:51;;;;;;;1999.90;999.90;;;5.60;99.90;;;;;;4920525;29;20193;-80
2021/03/22 07:17:21;;;;;;;1999.90;999.90;;;5.50;99.90;;;;;;4921793;29;20178;-80
2021/03/22 07:20:05;;;;;;;1999.90;999.90;;;5.40;99.90;;;;;;4922432;29;20449;-80
2021/03/22 07:22:30;;;;;;;1999.90;999.90;;;5.40;99.90;;;;;;4922546;29;20157;-80
2021/03/22 07:25:03;;;;;;;1999.90;999.90;;;5.40;99.90;;;;;;4922325;29;20602;-80
2021/03/22 07:27:39;;;;;;;1999.90;999.90;;;5.40;99.90;;;;;;4922599;29;20193;-80
2021/03/22 07:30:14;;;;;;;1999.90;999.90;;;5.50;99.90;;;;;;4921524;29;20165;-81
2021/03/22 07:32:48;;;;;;;1999.90;999.90;;;5.60;99.90;;;;;;4921689;29;20168;-80
2021/03/22 07:35:44;;;;;;;1999.90;999.90;;;5.70;99.90;;;;;;4922084;29;20736;-80
2021/03/22 07:38:47;;;;;;;1999.90;999.90;;;5.80;99.90;;;;;;4921693;29;20157;-80
2021/03/22 07:41:49;;;;;;;1999.90;999.90;;;5.90;99.90;;;;;;4920415;29;20540;-80
2021/03/22 07:44:39;;;;;;;1999.90;999.90;;;6.10;99.90;;;;;;4881437;29;20209;-80
2021/03/22 07:47:19;;;;;;;1999.90;999.90;;;6.20;99.90;;;;;;4920751;29;20657;-81
2021/03/22 07:50:07;;;;;;;1999.90;999.90;;;6.20;99.90;;;;;;4920632;29;20552;-81
2021/03/22 07:52:41;;;;;;;1999.90;999.90;;;6.10;99.90;;;;;;4922116;29;20633;-80
2021/03/22 07:55:33;;;;;;;1999.90;999.90;;;6.10;99.90;;;;;;4920076;29;20214;-80
2021/03/22 07:58:24;;;;;;;1999.90;999.90;;;6.10;99.90;;;;;;4905644;29;20189;-81
2021/03/22 08:01:04;;;;;;;1999.90;999.90;;;6.10;99.90;;;;;;4921192;29;20533;-79
2021/03/22 08:04:22;;;;;;;1999.90;999.90;;;6.10;99.90;;;;;;4918271;29;20561;-79
2021/03/22 08:07:10;;;;;;;1999.90;999.90;;;6.20;99.90;;;;;;4919285;29;20196;-79
2021/03/22 08:10:03;;;;;;;1999.90;999.90;;;6.20;99.90;;;;;;4919811;29;20177;-79
2021/03/22 08:12:48;;;;;;;1999.90;999.90;;;6.20;99.90;;;;;;4918307;29;20158;-79
2021/03/22 08:15:43;;;;;;;1999.90;999.90;;;6.20;99.90;;;;;;4919542;29;20241;-79
2021/03/22 08:18:17;;;;;;;1999.90;999.90;;;6.30;99.90;;;;;;4930931;29;20256;-79
2021/03/22 08:21:18;;;;;;;1999.90;999.90;;;6.40;99.90;;;;;;4919393;29;20162;-79
2021/03/22 08:24:21;;;;;;;1999.90;999.90;;;6.50;99.90;;;;;;4918914;29;20688;-78
2021/03/22 08:27:16;;;;;;;1999.90;999.90;;;6.50;99.90;;;;;;4878533;29;20174;-79
2021/03/22 08:29:57;;;;;;;1999.90;999.90;;;6.50;99.90;;;;;;4918088;29;20237;-79
2021/03/22 08:32:39;;;;;;;1999.90;999.90;;;6.40;99.90;;;;;;4918131;29;20162;-79
2021/03/22 08:35:20;;;;;;;1999.90;999.90;;;6.50;99.90;;;;;;4916908;29;20196;-79
2021/03/22 08:37:53;;;;;;;1999.90;999.90;;;6.50;99.90;;;;;;4916652;29;20176;-79
2021/03/22 08:40:38;;;;;;;1999.90;999.90;;;6.60;99.90;;;;;;4918721;29;20732;-79
2021/03/22 08:43:10;;;;;;;1999.90;999.90;;;6.70;99.90;;;;;;4917599;29;20233;-79
2021/03/22 08:46:14;;;;;;;1999.90;999.90;;;6.70;99.90;;;;;;4918720;29;20721;-79
2021/03/22 08:48:42;;;;;;;1999.90;999.90;;;6.70;99.90;;;;;;4915031;29;20275;-81
2021/03/22 08:51:28;;;;;;;1999.90;999.90;;;6.80;99.90;;;;;;4918447;29;20183;-80
2021/03/22 08:53:58;;;;;;;1999.90;999.90;;;6.80;99.90;;;;;;5091931;23;20217;-80
2021/03/22 08:56:38;;;;;;;1999.90;999.90;;;6.80;99.90;;;;;;4919278;29;20192;-80
2021/03/22 08:59:17;;;;;;;1999.90;999.90;;;6.80;99.90;;;;;;4919995;29;20185;-81
2021/03/22 09:01:43;;;;;;;1999.90;999.90;;;6.90;99.90;;;;;;4918752;29;20180;-79
2021/03/22 09:04:17;;;;;;;1999.90;999.90;;;7.00;99.90;;;;;;4919883;29;20212;-80
2021/03/22 09:07:09;;;;;;;1999.90;999.90;;;7.10;99.90;;;;;;4918955;29;20160;-81
2021/03/22 09:09:38;;;;;;;1999.90;999.90;;;7.40;99.90;;;;;;4898491;29;20192;-81
2021/03/22 09:12:26;;;;;;;1999.90;999.90;;;7.50;99.90;;;;;;4920293;29;20206;-80
2021/03/22 09:14:52;;;;;;;1999.90;999.90;;;7.60;99.90;;;;;;4920483;29;20193;-81
2021/03/22 09:17:33;;;;;;;1999.90;999.90;;;7.50;99.90;;;;;;4920413;29;20165;-80
2021/03/22 09:20:28;;;;;;;1999.90;999.90;;;7.50;99.90;;;;;;4918942;29;20193;-81
2021/03/22 09:23:03;;;;;;;1999.90;999.90;;;7.50;99.90;;;;;;4919574;29;20221;-81
2021/03/22 09:25:56;;;;;;;1999.90;999.90;;;7.50;99.90;;;;;;4920897;29;20173;-81
2021/03/22 09:28:25;;;;;;;1999.90;999.90;;;7.60;99.90;;;;;;4920763;29;20161;-81
2021/03/22 09:31:12;;;;;;;1999.90;999.90;;;7.70;99.90;;;;;;4920452;29;20166;-81
2021/03/22 09:34:00;;;;;;;1999.90;999.90;;;7.80;99.90;;;;;;4919623;29;20193;-80
2021/03/22 09:36:46;;;;;;;1999.90;999.90;;;7.90;99.90;;;;;;4919382;29;20537;-80
2021/03/22 09:39:16;;;;;;;1999.90;999.90;;;7.90;99.90;;;;;;4921983;29;20189;-81
2021/03/22 09:42:09;;;;;;;1999.90;999.90;;;8.00;99.90;;;;;;4924058;29;20165;-80
2021/03/22 09:44:38;;;;;;;1999.90;999.90;;;8.10;99.90;;;;;;4923015;29;20185;-81
2021/03/22 09:47:13;;;;;;;1999.90;999.90;;;8.10;99.90;;;;;;4923505;29;20526;-80
2021/03/22 09:49:57;;;;;;;1999.90;999.90;;;8.00;99.90;;;;;;4924069;29;20175;-81
2021/03/22 09:52:35;;;;;;;1999.90;999.90;;;8.00;99.90;;;;;;4922482;29;20224;-79
2021/03/22 09:55:27;;;;;;;1999.90;999.90;;;7.90;99.90;;;;;;5047541;23;20214;-81
2021/03/22 09:57:57;;;;;;;1999.90;999.90;;;7.90;99.90;;;;;;4980221;28;20250;-80
2021/03/22 10:00:34;;;;;;;1999.90;999.90;;;7.80;99.90;;;;;;4981017;28;20226;-81
2021/03/22 10:03:34;;;;;;;1999.90;999.90;;;7.80;99.90;;;;;;4981074;28;20209;-81
2021/03/22 10:06:03;;;;;;;1999.90;999.90;;;7.80;99.90;;;;;;4974912;28;20230;-81
2021/03/22 10:08:37;;;;;;;1999.90;999.90;;;7.70;99.90;;;;;;4963953;28;20597;-81
2021/03/22 10:11:23;;;;;;;1999.90;999.90;;;7.70;99.90;;;;;;4980602;28;20172;-81
2021/03/22 10:13:50;;;;;;;1999.90;999.90;;;7.60;99.90;;;;;;4980880;28;20195;-81
2021/03/22 10:16:32;;;;;;;1999.90;999.90;;;7.60;99.90;;;;;;4981444;28;20198;-81
2021/03/22 10:19:12;;;;;;;1999.90;999.90;;;7.50;99.90;;;;;;4980983;28;20262;-81
2021/03/22 10:21:43;;;;;;;1999.90;999.90;;;7.50;99.90;;;;;;4980727;28;20151;-81
2021/03/22 10:24:22;;;;;;;1999.90;999.90;;;7.50;99.90;;;;;;4962946;28;20270;-81
2021/03/22 10:26:51;;;;;;;1999.90;999.90;;;7.50;99.90;;;;;;4981227;28;20155;-80
2021/03/22 10:29:20;;;;;;;1999.90;999.90;;;7.50;99.90;;;;;;4980836;28;20163;-81
2021/03/22 10:32:03;;;;;;;1999.90;999.90;;;7.50;99.90;;;;;;4963381;28;20242;-81
2021/03/22 10:34:51;;;;;;;1999.90;999.90;;;7.60;99.90;;;;;;4979611;28;20194;-81
2021/03/22 10:37:33;;;;;;;1999.90;999.90;;;7.60;99.90;;;;;;4979998;28;20151;-81
2021/03/22 10:40:03;;;;;;;1999.90;999.90;;;7.70;99.90;;;;;;4980036;28;20187;-81
2021/03/22 10:42:34;;;;;;;1999.90;999.90;;;7.70;99.90;;;;;;4980504;28;20164;-81
2021/03/22 10:44:59;;;;;;;1999.90;999.90;;;7.60;99.90;;;;;;4980286;28;20262;-81
2021/03/22 10:47:30;;;;;;;1999.90;999.90;;;7.60;99.90;;;;;;4963047;28;20605;-81
2021/03/22 10:50:29;;;;;;;1999.90;999.90;;;7.70;99.90;;;;;;4979567;28;20383;-80
2021/03/22 10:53:17;;;;;;;1999.90;999.90;;;7.70;99.90;;;;;;4966116;28;20257;-80
2021/03/22 10:55:49;;;;;;;1999.90;999.90;;;7.70;99.90;;;;;;4981333;28;20635;-81
2021/03/22 10:58:18;;;;;;;1999.90;999.90;;;7.80;99.90;;;;;;4980364;28;20647;-81
2021/03/22 11:00:45;;;;;;;1999.90;999.90;;;7.80;99.90;;;;;;4981019;28;20171;-81
2021/03/22 11:03:19;;;;;;;1999.90;999.90;;;8.00;99.90;;;;;;4963129;28;20258;-81
2021/03/22 11:05:46;;;;;;;1999.90;999.90;;;8.10;99.90;;;;;;4980632;28;20150;-80
2021/03/22 11:08:54;;;;;;;1999.90;999.90;;;8.20;99.90;;;;;;4980573;28;20166;-81
2021/03/22 11:11:24;;;;;;;1999.90;999.90;;;8.20;99.90;;;;;;4980804;28;20175;-81
2021/03/22 11:13:55;;;;;;;1999.90;999.90;;;8.30;99.90;;;;;;4980591;28;20191;-81
2021/03/22 11:16:43;;;;;;;1999.90;999.90;;;8.30;99.90;;;;;;4978976;28;20179;-81
2021/03/22 11:19:23;;;;;;;1999.90;999.90;;;8.20;99.90;;;;;;4962472;28;20207;-81
2021/03/22 11:21:49;;;;;;;1999.90;999.90;;;8.20;99.90;;;;;;4962208;28;20167;-81
2021/03/22 11:24:37;;;;;;;1999.90;999.90;;;8.20;99.90;;;;;;4979408;28;20187;-81
2021/03/22 11:27:05;;;;;;;1999.90;999.90;;;8.20;99.90;;;;;;4979675;28;20215;-80
2021/03/22 11:29:30;;;;;;;1999.90;999.90;;;8.30;99.90;;;;;;4980683;28;20172;-81
2021/03/22 11:32:01;;;;;;;1999.90;999.90;;;8.30;99.90;;;;;;4979563;28;20183;-81
2021/03/22 11:34:35;;;;;;;1999.90;999.90;;;8.30;99.90;;;;;;4979723;28;20273;-81
2021/03/22 11:37:13;;;;;;;1999.90;999.90;;;8.20;99.90;;;;;;4961182;28;20206;-81
2021/03/22 11:39:39;;;;;;;1999.90;999.90;;;8.10;99.90;;;;;;4961945;28;20221;-81
2021/03/22 11:42:45;;;;;;;1999.90;999.90;;;8.20;99.90;;;;;;4962173;28;20163;-81
2021/03/22 11:45:32;;;;;;;1999.90;999.90;;;8.20;99.90;;;;;;4977563;28;20286;-80
2021/03/22 11:47:58;;;;;;;1999.90;999.90;;;8.30;99.90;;;;;;4978936;28;20151;-80
2021/03/22 11:50:59;;;;;;;1999.90;999.90;;;8.30;99.90;;;;;;4962304;28;20179;-81
2021/03/22 11:53:25;;;;;;;1999.90;999.90;;;8.40;99.90;;;;;;4937466;28;20458;-81
2021/03/22 11:56:13;;;;;;;1999.90;999.90;;;8.50;99.90;;;;;;4979373;28;20586;-80
2021/03/22 11:58:43;;;;;;;1999.90;999.90;;;8.70;99.90;;;;;;4978598;28;20234;-81
2021/03/22 12:01:20;;;;;;;1999.90;999.90;;;8.90;99.90;;;;;;4960590;28;20226;-80
2021/03/22 12:03:48;;;;;;;1999.90;999.90;;;9.00;99.90;;;;;;4977202;28;20190;-80
2021/03/22 12:06:20;;;;;;;1999.90;999.90;;;9.00;99.90;;;;;;4959094;28;20178;-79
2021/03/22 12:08:52;;;;;;;1999.90;999.90;;;9.10;99.90;;;;;;4959598;28;20583;-79
2021/03/22 12:11:25;;;;;;;1999.90;999.90;;;9.10;99.90;;;;;;4959124;28;20179;-80
2021/03/22 12:13:55;;;;;;;1999.90;999.90;;;9.20;99.90;;;;;;4958449;28;20199;-80
2021/03/22 12:16:30;;;;;;;1999.90;999.90;;;9.30;99.90;;;;;;4977039;28;20204;-80
2021/03/22 12:19:03;;;;;;;1999.90;999.90;;;9.30;99.90;;;;;;4978961;28;20201;-80
2021/03/22 12:21:29;;;;;;;1999.90;999.90;;;9.30;99.90;;;;;;4962684;28;20523;-81
2021/03/22 12:23:55;;;;;;;1999.90;999.90;;;9.30;99.90;;;;;;4978870;28;20183;-81
2021/03/22 12:26:21;;;;;;;1999.90;999.90;;;9.10;99.90;;;;;;4978723;28;20191;-81
2021/03/22 12:28:59;;;;;;;1999.90;999.90;;;9.10;99.90;;;;;;4978668;28;20254;-81
2021/03/22 12:31:34;;;;;;;1999.90;999.90;;;9.00;99.90;;;;;;4961607;28;20171;-81
2021/03/22 12:34:02;;;;;;;1999.90;999.90;;;9.00;99.90;;;;;;4961146;28;20217;-81
2021/03/22 12:36:28;;;;;;;1999.90;999.90;;;8.80;99.90;;;;;;4978623;28;20178;-81
2021/03/22 12:38:54;;;;;;;1999.90;999.90;;;8.80;99.90;;;;;;4978390;28;20273;-81
2021/03/22 12:42:03;;;;;;;1999.90;999.90;;;8.70;99.90;;;;;;4979065;28;20299;-81
2021/03/22 12:44:35;;;;;;;1999.90;999.90;;;8.80;99.90;;;;;;4941184;28;20222;-81
2021/03/22 12:47:01;;;;;;;1999.90;999.90;;;8.90;99.90;;;;;;4960792;28;20166;-80
2021/03/22 12:49:27;;;;;;;1999.90;999.90;;;9.00;99.90;;;;;;4961012;28;20175;-80